Aviation Digital Data Service (ADDS)

Output produced by METARs form (1111 UTC 24 April 2017)
found at http://www.aviationweather.gov/adds/metars/
 
EGAA 241050Z 34016KT 9999 SCT043 08/M00 Q1018
TAF AMD EGAA 240823Z 2408/2506 32010KT 9999 FEW020 BKN030 
     TEMPO 2408/2420 6000 SHRA BKN014 
     BECMG 2410/2413 33020G30KT 
     TEMPO 2420/2423 3000 SHRASN BKN008 
     BECMG 2422/2424 35014KT 
     PROB30 
     TEMPO 2423/2506 4000 SHRASN -SHSN BKN008
       
EGYE 240850Z 27014KT 9999 FEW025 BKN050 BKN250 ///// Q1014 BLU
EGPL 241050Z 35026G36KT 5000 SHRASN FEW004 BKN010 BKN024 03/01 Q1019
TAF AMD EGPL 240902Z 2409/2416 33020G30KT 9999 FEW014 SCT030 
     TEMPO 2409/2416 4000 SHRASN BKN008 
     PROB40 
     TEMPO 2415/2416 34035G55KT 1400 SHGS BKN005
       
EGUB 241050Z 28004KT 9999 FEW028 SCT040 BKN050 11/07 Q1016 BLU TEMPO SCT022 WHT
TAF EGUB 241027Z 2412/2421 27008KT 9999 BKN030 
     TEMPO 2413/2417 7000 -SHRA SCT022
       
EGKB 241050Z 30009KT 280V350 9999 SCT035 SCT045 13/07 Q1016
TAF EGKB 240756Z 2409/2418 28007KT 9999 FEW045 
     TEMPO 2410/2418 9000 -SHRA 
     PROB30 
     TEMPO 2412/2418 SHRA BKN014
       
EGBB 241050Z 28007KT 240V310 9999 BKN035 12/06 Q1015
TAF EGBB 240457Z 2406/2506 30010KT 9999 SCT030 
     TEMPO 2406/2414 8000 -RA BKN014 
     PROB30 
     TEMPO 2409/2413 4000 RADZ BKN008 
     TEMPO 2410/2419 32015G25KT 
     PROB30 
     TEMPO 2502/2504 4000 -SHRASN BKN009
       
EGNH 241050Z 31016KT 9999 FEW022 10/05 Q1015
TAF AMD EGNH 240909Z 2409/2418 32020KT 9999 SCT025 
     TEMPO 2409/2411 5000 RA BKN004 
     TEMPO 2411/2415 31024G34KT
       
EGDM 241050Z 28012KT 9999 FEW024 BKN040 BKN060 12/06 Q1016 BLU NOSIG
TAF EGDM 241043Z 2412/2418 27012KT 9999 BKN040 
     TEMPO 2412/2418 SCT020 
     PROB40 
     TEMPO 2412/2418 7000 -SHRA
       
EGHH 241050Z 30008KT 9999 FEW040 14/06 Q1017
TAF EGHH 240803Z 2409/2418 31010KT 9999 SCT040 
     TEMPO 2415/2418 8000 -RA
       
EGGD 241050Z 26013KT 9999 SCT007 BKN010 11/09 Q1017
TAF EGGD 240459Z 2406/2506 26012KT 9999 SCT030 
     TEMPO 2406/2419 8000 -RA BKN010 
     PROB30 
     TEMPO 2406/2412 BKN004 
     BECMG 2416/2419 34008KT
       
EGVN 241050Z 25005KT 9999 SCT022 SCT028 BKN050 12/07 Q1016 BECMG FEW022
TAF EGVN 241024Z 2412/2512 30008KT 9999 BKN045 
     PROB40 
     TEMPO 2412/2420 BKN018 
     PROB30 
     TEMPO 2412/2419 7000 -SHRA SCT014 
     PROB30 
     TEMPO 2502/2506 SCT016
       
EGAA 241050Z 34016KT 9999 SCT043 08/M00 Q1018
TAF AMD EGAA 240823Z 2408/2506 32010KT 9999 FEW020 BKN030 
     TEMPO 2408/2420 6000 SHRA BKN014 
     BECMG 2410/2413 33020G30KT 
     TEMPO 2420/2423 3000 SHRASN BKN008 
     BECMG 2422/2424 35014KT 
     PROB30 
     TEMPO 2423/2506 4000 SHRASN -SHSN BKN008
       
EGAC 241050Z 33017G28KT 9999 FEW020 SCT035 08/00 Q1017
TAF EGAC 240800Z 2409/2418 34010KT 9999 FEW015 SCT035 
     BECMG 2409/2412 34018G28KT 
     PROB30 
     TEMPO 2411/2418 7000 SHRA
       
EGAE 241050Z 35019KT 9999 SCT025 BKN037 08/01 Q1019
TAF EGAE 240857Z 2409/2416 35018KT 9999 FEW015 SCT030 
     TEMPO 2409/2416 35023G33KT 6000 SHRA BKN014
       
EGBB 241050Z 28007KT 240V310 9999 BKN035 12/06 Q1015
TAF EGBB 240457Z 2406/2506 30010KT 9999 SCT030 
     TEMPO 2406/2414 8000 -RA BKN014 
     PROB30 
     TEMPO 2409/2413 4000 RADZ BKN008 
     TEMPO 2410/2419 32015G25KT 
     PROB30 
     TEMPO 2502/2504 4000 -SHRASN BKN009
       
EGBE 241050Z 26008KT 230V300 9999 FEW018 SCT026 13/08 Q1015
TAF EGBE 240803Z 2409/2418 28010KT 9999 SCT045 
     TEMPO 2410/2418 31015G25KT 8000 -RA
       
EGBJ 241050Z 29007KT 9999 FEW015 SCT032 12/08 Q1016
TAF EGBJ 240803Z 2409/2418 28010KT 9999 SCT035 
     TEMPO 2410/2418 31015G25KT 8000 -RA
       
EGCC 241050Z AUTO 29010KT 9999 -RA FEW013/// SCT018/// BKN028/// //////TCU 09/06 Q1015 RESHRA NOSIG
TAF EGCC 240457Z 2406/2512 29005KT 9999 FEW012 SCT020 
     TEMPO 2406/2412 8000 -RA BKN012 
     PROB30 
     TEMPO 2406/2412 4000 RADZ BKN006 
     BECMG 2407/2409 30015KT 
     TEMPO 2409/2419 31018G32KT 
     PROB30 
     TEMPO 2416/2423 8000 -SHRA 
     BECMG 2419/2422 32005KT 
     PROB40 
     TEMPO 2423/2503 3000 -RASN BKN008
       
EGCN 241050Z 36015KT 9999 -SHRA FEW019 BKN030 BKN035 09/05 Q1014
TAF EGCN 240501Z 2406/2506 25003KT 9999 SCT025 
     BECMG 2406/2409 27013KT 
     TEMPO 2410/2413 7000 RA 
     TEMPO 2415/2419 29016G26KT 
     PROB30 
     TEMPO 2419/2421 8000 SHRA BKN014 
     BECMG 2500/2503 33010KT
       
EGDM 241050Z 28012KT 9999 FEW024 BKN040 BKN060 12/06 Q1016 BLU NOSIG
TAF EGDM 241043Z 2412/2418 27012KT 9999 BKN040 
     TEMPO 2412/2418 SCT020 
     PROB40 
     TEMPO 2412/2418 7000 -SHRA
       
EGDR 241050Z 29007KT 9999 FEW014 SCT120 BKN200 14/06 Q1019 BLU NOSIG
TAF COR EGDR 241052Z 2412/2421 32010KT 9999 FEW020 
     PROB40 
     TEMPO 2412/2417 SCT020 
     BECMG 2415/2417 SCT020 
     TEMPO 2415/2421 5000 -RA SCT010 BKN018
       
EGDX 241050Z 26015KT 9999 BKN007 BKN060 12/10 Q1017 GRN
TAF AMD EGDX 241028Z 2410/2418 27012KT 9999 BKN007 
     BECMG 2410/2412 FEW007 SCT025 
     PROB40 
     TEMPO 2412/2416 7000 SHRA SCT014 BKN020
       
EGDY 241050Z 26007KT 9999 FEW030 SCT060 14/06 Q1017 BLU TEMPO SCT022 WHT
TAF EGDY 240751Z 2409/2418 31005KT 9999 BKN040 
     TEMPO 2411/2418 SCT020 
     PROB30 
     TEMPO 2411/2418 7000 -SHRA
       
EGEC 241050Z 34024G34KT 9999 FEW023 SCT027 06/01 Q1017
TAF EGEC 240804Z 2409/2417 32020KT 9999 SCT025 
     TEMPO 2409/2417 31028G38KT 
     PROB40 
     TEMPO 2409/2416 6000 SHRA BKN008 
     PROB30 
     TEMPO 2412/2416 4000 SHRASN
       
EGEO 241050Z 33027KT 9999 VCSH SCT029 06/M00 Q1015
TAF EGEO 240808Z 2409/2417 33025G35KT 9999 SCT030
       
EGFF 241050Z AUTO 26011KT 9999 BKN008 12/10 Q1017
TAF AMD EGFF 241027Z 2410/2506 30009KT 9999 BKN007 
     TEMPO 2410/2418 8000 -RA BKN014 
     BECMG 2503/2506 36010KT
       
EGGD 241050Z 26013KT 9999 SCT007 BKN010 11/09 Q1017
TAF EGGD 240459Z 2406/2506 26012KT 9999 SCT030 
     TEMPO 2406/2419 8000 -RA BKN010 
     PROB30 
     TEMPO 2406/2412 BKN004 
     BECMG 2416/2419 34008KT
       
EGGP 241050Z 31012KT 280V340 9999 VCSH SCT017 BKN035 10/06 Q1015
TAF EGGP 240457Z 2406/2506 28006KT 9999 FEW010 SCT025 
     BECMG 2406/2409 31016KT 
     TEMPO 2406/2412 6000 RA BKN012 
     TEMPO 2409/2421 31018G32KT 
     PROB30 
     TEMPO 2409/2412 4000 RADZ BKN009 
     PROB30 
     TEMPO 2416/2424 8000 -SHRA 
     BECMG 2418/2421 35006KT 
     PROB30 
     TEMPO 2423/2503 3000 -SHRASN BKN012
       
EGGW 241050Z AUTO 26010KT 230V290 9999 NCD 11/07 Q1015
TAF EGGW 240504Z 2406/2506 28008KT 9999 FEW045 
     TEMPO 2406/2416 9000 -SHRA 
     PROB30 
     TEMPO 2410/2416 SHRA BKN012 
     PROB30 
     TEMPO 2416/2422 30015G25KT
       
EGHC 241050Z 32008KT 280V360 9999 FEW016 13/09 Q1019
TAF EGHC 240803Z 2409/2418 32010KT 9999 SCT040
       
EGHE 241050Z 36005KT 9999 FEW012 14/09 Q1020
TAF AMD EGHE 240856Z 2409/2418 35008KT 9999 SCT035 
     TEMPO 2415/2418 01015G25KT 8000 -RA
       
EGHH 241050Z 30008KT 9999 FEW040 14/06 Q1017
TAF EGHH 240803Z 2409/2418 31010KT 9999 SCT040 
     TEMPO 2415/2418 8000 -RA
       
EGHI 241050Z 28007KT 220V330 9999 FEW030 13/05 Q1017
TAF EGHI 240803Z 2409/2418 35009KT 9999 SCT040 
     TEMPO 2415/2418 8000 -RA
       
EGHQ 241050Z 30009KT 9999 FEW012 11/08 Q1019
TAF EGHQ 240803Z 2409/2418 31010KT 9999 SCT020 
     TEMPO 2412/2418 32015G25KT
       
EGJA 241050Z 26005KT 9999 FEW015 11/09 Q1018
TAF EGJA 240752Z 2409/2418 28009KT 9999 FEW048
       
EGJB 241050Z 28008KT 9999 FEW020 13/09 Q1019
TAF EGJB 240752Z 2409/2418 28009KT 9999 FEW048
       
EGJJ 241050Z 28009KT 260V340 9999 FEW020 13/06 Q1018 NOSIG
TAF EGJJ 240752Z 2409/2418 28009KT 9999 FEW048
       
EGKA 241050Z 23011KT 9999 FEW024 SCT028 13/08 Q1016
TAF EGKA 240855Z 2409/2418 VRB03KT 9999 SCT030 
     BECMG 2409/2412 25010KT 
     TEMPO 2414/2418 9000 -SHRA 
     BECMG 2415/2418 32010KT 
     PROB30 
     TEMPO 2415/2418 SHRA
       
EGKB 241050Z 30009KT 280V350 9999 SCT035 SCT045 13/07 Q1016
TAF EGKB 240756Z 2409/2418 28007KT 9999 FEW045 
     TEMPO 2410/2418 9000 -SHRA 
     PROB30 
     TEMPO 2412/2418 SHRA BKN014
       
EGKK 241050Z 29009KT 9999 FEW030 13/06 Q1016
TAF EGKK 240453Z 2406/2512 25005KT 4000 BR SCT045 
     BECMG 2406/2409 9999 NSW 
     PROB30 
     TEMPO 2414/2420 6000 SHRA BKN014 
     BECMG 2416/2419 31012KT
       
EGLC 241050Z AUTO 26011KT 9999 -RA FEW030 SCT047 14/06 Q1016
TAF EGLC 240756Z 2409/2418 26009KT 9999 FEW045 
     PROB30 
     TEMPO 2410/2413 9000 -SHRA BKN014 
     PROB30 
     TEMPO 2413/2417 8000 SHRA
       
EGLF 241050Z 30007KT 270V330 9999 SCT030 13/06 Q1016
TAF EGLF 240756Z 2409/2418 28008KT 9999 FEW040 
     TEMPO 2410/2418 9000 -SHRA 
     PROB30 
     TEMPO 2412/2418 SHRA BKN014
       
EGLL 241050Z AUTO 28008KT 9999 FEW040 13/07 Q1016
TAF EGLL 240457Z 2406/2512 26006KT 9999 SCT035 
     PROB30 
     TEMPO 2412/2415 8000 -SHRA 
     BECMG 2415/2418 32012KT 
     PROB30 
     TEMPO 2415/2419 6000 SHRA BKN014
       
EGMC 241020Z 30010KT 9999 FEW032 SCT048 13/05 Q1016
TAF EGMC 240756Z 2409/2418 26006KT 9999 FEW045 
     TEMPO 2411/2418 9000 -SHRA 
     PROB30 
     TEMPO 2412/2418 SHRA
       
EGMD 241050Z 23014KT 9999 FEW014 13/09 Q1016
TAF EGMD 240756Z 2409/2418 25009KT 9999 FEW045 
     PROB30 
     TEMPO 2409/2412 8000 BKN008 
     TEMPO 2412/2418 9000 -SHRA 
     PROB30 
     TEMPO 2415/2418 SHRA BKN014
       
EGNC 241050Z 28015KT 240V310 9999 SCT025 09/M00 Q1013
TAF EGNC 240844Z 2409/2417 29010KT 9999 SCT030 
     BECMG 2410/2413 29018G28KT
       
EGNH 241050Z 31016KT 9999 FEW022 10/05 Q1015
TAF AMD EGNH 240909Z 2409/2418 32020KT 9999 SCT025 
     TEMPO 2409/2411 5000 RA BKN004 
     TEMPO 2411/2415 31024G34KT
       
EGNJ 241050Z 02008KT 9999 FEW012 SCT020 07/06 Q1014
TAF AMD EGNJ 241028Z 2410/2418 27015KT 9999 FEW015 SCT030 
     TEMPO 2410/2413 34018G28KT 6000 SHRA BKN014 
     TEMPO 2413/2415 30018G28KT
       
EGNM 241050Z VRB03KT 9999 FEW012 SCT024 08/06 Q1013
TAF EGNM 240459Z 2406/2506 25012KT 9999 FEW010 
     TEMPO 2406/2411 6000 -RA BKN008 
     PROB30 
     TEMPO 2406/2409 26018G28KT 
     BECMG 2409/2412 31018G28KT 
     BECMG 2418/2421 30008KT
       
EGNO 241050Z 33015KT 9999 FEW021 10/04 Q1015
TAF EGNO 240804Z 2409/2418 32016G26KT 9999 FEW015 SCT030
       
EGNR 241050Z 32013KT 9999 -SHRA FEW012 SCT021 BKN035 09/07 Q1016
TAF AMD EGNR 241031Z 2410/2418 31012KT 9999 SCT025 
     TEMPO 2410/2418 32018G30KT 
     PROB30 
     TEMPO 2410/2412 4000 RA BKN012
       
EGNS 241050Z 34018KT 300V020 9999 FEW020 09/03 Q1017 NOSIG
TAF EGNS 240800Z 2409/2418 33017KT 9999 FEW018 SCT045 
     BECMG 2412/2415 32025G35KT
       
EGNT 241050Z 32009KT 270V340 9999 VCSH FEW030 08/02 Q1012
TAF EGNT 240501Z 2406/2506 29010KT 9999 FEW030 
     TEMPO 2406/2408 7000 RA BKN014 
     BECMG 2410/2413 29015G25KT 
     TEMPO 2412/2419 6000 SHRA 
     PROB40 
     TEMPO 2416/2418 4000 SHRASN BKN010 
     BECMG 2418/2421 28009KT 
     PROB40 
     TEMPO 2500/2506 3000 SHRASN BKN008CB
       
EGNV 241050Z 32010KT 280V060 9999 FEW018 SCT030 09/03 Q1013
TAF EGNV 240804Z 2409/2418 28009KT 9999 FEW014 SCT025 
     TEMPO 2409/2411 35010KT 8000 -RA 
     PROB30 
     TEMPO 2409/2411 4000 RA BKN014 
     BECMG 2411/2414 28018G28KT
       
EGNX 241050Z 27015KT 9999 SCT021 BKN037 10/06 Q1015
TAF EGNX 240457Z 2406/2506 25009KT 9999 SCT030 
     BECMG 2406/2409 31012KT 
     TEMPO 2406/2414 8000 -RA BKN014 
     TEMPO 2409/2419 32017G27KT 
     PROB30 
     TEMPO 2409/2413 4000 RADZ BKN008 
     PROB30 
     TEMPO 2501/2503 4000 -SHRASN BKN009
       
EGOM 241050Z 28017KT 9999 SCT040 08/M01 Q1011 BLU
EGOP 241050Z 30014KT 9999 BKN048 12/07 Q1018 BLU
EGOS 241050Z 31008KT 9999 -RA FEW018 BKN035 10/06 Q1015 BLU BECMG 33012G22KT SCT020 WHT
TAF EGOS 241059Z 2412/2421 31015G25KT 9999 SCT025 BKN030 
     TEMPO 2412/2413 -RA BKN020 
     PROB30 
     TEMPO 2412/2413 6000 SHRA SCT012
       
EGOV 241050Z 33014KT 9999 FEW020 BKN065 10/06 Q1017 BLU NOSIG
TAF EGOV 241043Z 2412/2418 34015KT 9999 FEW020 BKN040 
     TEMPO 2414/2418 34020G30KT
       
EGOW 241050Z 31016KT 9999 FEW015 11/04 Q1015 BLU
TAF EGOW 241029Z 2412/2418 32018G28KT 9999 FEW012
       
EGPA 241050Z 01015KT 0900 R09/1000 SN SCT002 BKN004 BKN006 01/01 Q1012 R09/690299
TAF EGPA 240808Z 2409/2418 34014KT 9999 SCT012 BKN025 
     TEMPO 2409/2418 4000 SHRASN BKN008 
     PROB40 
     TEMPO 2409/2418 01017G27KT 2000 SHSN BKN004
       
EGPB 241050Z 33013KT 310V010 9999 FEW018 SCT030 04/M05 Q1011 NOSIG
TAF EGPB 240808Z 2409/2418 36015KT 9999 SCT025 
     PROB40 
     TEMPO 2409/2418 01018G28KT 3000 SHSN BKN008
       
EGPC 241050Z 02014KT 3500 -SN SCT002 SCT004 BKN011 01/01 Q1010 RESN
TAF AMD EGPC 240933Z 2409/2418 33014KT 9999 SCT012 BKN030 
     TEMPO 2409/2418 4000 SHRASN BKN012 
     PROB40 
     TEMPO 2409/2412 1200 SHSN BKN002 
     PROB40 
     TEMPO 2415/2418 0500 +SHSN BKN002
       
EGPD 241050Z AUTO 26007KT 230V290 9999 -RA FEW047/// //////CB 07/M02 Q1008 TEMPO 4000 RASN BKN008
TAF EGPD 240456Z 2406/2506 29014KT 9999 FEW015 SCT035 
     TEMPO 2406/2415 2000 RASN BKN005 
     BECMG 2409/2412 35015KT 
     PROB30 
     TEMPO 2410/2415 36018G28KT 0500 SN BKN002 
     TEMPO 2415/2419 32005KT 
     TEMPO 2419/2503 3000 SHSN BKN008 
     PROB30 
     TEMPO 2421/2424 0500 +SHSN VV/// 
     TEMPO 2503/2506 1200 SN BKN004
       
EGPE 241050Z 34020G30KT 9999 VCSH FEW009 SCT014CB SCT022 03/02 Q1011
TAF AMD EGPE 240945Z 2409/2418 27018G28KT 9999 SCT030 
     BECMG 2409/2412 36018G28KT 
     TEMPO 2409/2418 4000 SHRASN BKN012 
     PROB30 
     TEMPO 2409/2412 1200 SHSN BKN006 
     PROB40 
     TEMPO 2415/2418 1200 SHSN BKN002
       
EGPF 241050Z AUTO 29020G30KT 9999 FEW036 SCT042 07/M00 Q1014
TAF EGPF 240501Z 2406/2506 25008KT 9999 SCT030 
     BECMG 2409/2412 31018G28KT 
     PROB30 
     TEMPO 2411/2414 7000 SHRA 
     TEMPO 2418/2421 4000 SHRASN BKN008 
     TEMPO 2500/2506 29008KT
       
EGPH 241050Z 27015KT 9999 FEW049 09/M03 Q1012
TAF EGPH 240456Z 2406/2506 27005KT 9999 SCT045 
     BECMG 2409/2412 29015KT 
     PROB30 
     TEMPO 2412/2415 29018G28KT 7000 SHRA BKN010 
     PROB30 
     TEMPO 2418/2421 4000 SHRASN BKN014
       
EGPI 241050Z 33027KT 9999 FEW025 SCT031 08/M02 Q1017
TAF AMD EGPI 240955Z 2409/2418 32024KT 9999 FEW016 SCT035 
     TEMPO 2409/2415 35028G38KT 8000 -SHRA 
     PROB40 
     TEMPO 2410/2415 4000 SHRASN BKN008 
     PROB30 
     TEMPO 2415/2418 4000 SHRASN BKN008
       
EGPK 241050Z 32019KT 9999 FEW016 08/M01 Q1015
TAF EGPK 240501Z 2406/2506 32012KT 9999 FEW030 
     BECMG 2410/2412 31020G30KT 
     PROB30 
     TEMPO 2410/2413 8000 -SHRA 
     BECMG 2418/2421 31012KT 
     PROB40 
     TEMPO 2418/2421 4000 SHRASN BKN008
       
EGPL 241050Z 35026G36KT 5000 SHRASN FEW004 BKN010 BKN024 03/01 Q1019
TAF AMD EGPL 240902Z 2409/2416 33020G30KT 9999 FEW014 SCT030 
     TEMPO 2409/2416 4000 SHRASN BKN008 
     PROB40 
     TEMPO 2415/2416 34035G55KT 1400 SHGS BKN005
       
EGPM 241050Z 34015KT 9999 VCSH SCT035 03/M06 Q1010 NOSIG
TAF EGPM 240808Z 2409/2418 36018G28KT 9999 SCT010 BKN040 
     TEMPO 2409/2418 3000 SHSN BKN006
       
EGPN 241050Z 28019KT 260V320 9999 FEW035 SCT045 09/M03 Q1010
TAF AMD EGPN 241035Z 2410/2418 30012KT 9999 SCT040 
     TEMPO 2410/2418 32018G28KT
       
EGPO 241050Z 35024G36KT 9999 -SHGS FEW018 FEW023CB SCT033 04/01 Q1017
TAF AMD EGPO 240826Z 2409/2418 31020G30KT 9999 SCT014 BKN030 
     TEMPO 2409/2418 34030G40KT 3000 SHRASN BKN006 
     PROB40 
     TEMPO 2409/2415 1400 SHSN BKN004 
     PROB40 
     TEMPO 2415/2418 1400 SHGS SHSN BKN004
       
EGPU 241050Z 34027KT 9999 SCT041 07/M01 Q1018
TAF AMD EGPU 240818Z 2409/2418 35015KT 9999 FEW015 SCT030 
     PROB30 
     TEMPO 2409/2415 36025G35KT 4000 SHRASN BKN008 
     TEMPO 2415/2418 5000 SHRA BKN014 
     PROB40 
     TEMPO 2415/2418 34035G55KT 2000 SHGS BKN005
       
EGQA 241050Z 33021KT 9999 VCSH FEW010 SCT020CB 05/// Q1011 WHT
EGQK 241050Z AUTO 29011KT 9999 SHRA FEW008/// BKN014/// 03/02 Q1010
EGQL 241050Z 28018KT CAVOK 09/M03 Q1010 BLU
TAF EGQL 241025Z 2412/2421 29012KT 9999 SCT035 
     TEMPO 2412/2418 31018G28KT 
     PROB30 
     TEMPO 2412/2420 6000 SHRA SHGS SCT020 
     PROB30 
     TEMPO 2420/2421 3000 SHRASN SCT012CB
       
EGQM 241050Z AUTO 28013KT 9999 BKN050/// 10/M02 Q1011
EGQS 241050Z 32013KT 9999 4000SW VCSH FEW009 SCT012CB BKN030 03/02 Q1009 RESHRA GRN TEMPO 9999 NSW FEW012CB BLU
TAF EGQS 241032Z 2412/2506 33014KT 9999 SCT030 
     TEMPO 2412/2506 34018G30KT 4000 SHRASN SHGS SCT015CB BKN020 
     PROB30 
     TEMPO 2412/2503 0700 SHSN SCT003 BKN010CB 
     PROB30 
     TEMPO 2500/2506 35025G40KT
       
EGSC 241050Z 25009KT 9999 SCT036 12/07 Q1014
TAF EGSC 240756Z 2409/2418 25009KT 9999 FEW035 
     TEMPO 2409/2416 9000 -SHRA 
     PROB30 
     TEMPO 2409/2412 BKN014 
     BECMG 2412/2415 31010KT 
     PROB30 
     TEMPO 2412/2416 SHRA
       
EGSH 241050Z 25012KT 230V290 9999 FEW028 SCT032 13/06 Q1013
TAF EGSH 240756Z 2409/2418 24009KT 9999 FEW045 
     TEMPO 2409/2415 9000 -SHRA 
     PROB30 
     TEMPO 2409/2415 6000 SHRA BKN014
       
EGSS 241050Z AUTO 27009KT 230V300 9999 BKN017 BKN048 13/08 Q1015
TAF EGSS 240504Z 2406/2512 27008KT 1200 BR FEW045 
     BECMG 2406/2409 9999 NSW 
     TEMPO 2409/2416 9000 -SHRA 
     PROB30 
     TEMPO 2410/2416 SHRA BKN012 
     PROB30 
     TEMPO 2416/2422 30015G25KT 
     BECMG 2507/2510 33010KT 
     PROB30 
     TEMPO 2509/2512 8000 SHRA BKN014 BKN030CB
       
EGTC 241050Z 26011KT 240V300 9999 BKN020 13/08 Q1015
TAF EGTC 240756Z 2409/2418 25008KT 9999 SCT045 
     TEMPO 2409/2416 9000 SHRA 
     BECMG 2412/2415 31012KT
       
EGTE 241050Z 31010KT 9999 FEW030 14/07 Q1018
TAF EGTE 240803Z 2409/2418 30010KT 9999 SCT030 
     PROB40 
     TEMPO 2411/2418 32015G25KT
       
EGTK 241050Z 26008KT 9999 FEW049 11/09 Q1015
TAF EGTK 240803Z 2409/2418 25005KT 9999 SCT040 
     TEMPO 2412/2418 30015G25KT
       
EGUB 241050Z 28004KT 9999 FEW028 SCT040 BKN050 11/07 Q1016 BLU TEMPO SCT022 WHT
TAF EGUB 241027Z 2412/2421 27008KT 9999 BKN030 
     TEMPO 2413/2417 7000 -SHRA SCT022
       
EGUL 241059Z AUTO 28011KT 9999 -RA BKN032 BKN049 12/10 A2993 RMK AO2 RAB58
TAF EGUL 240413Z 2404/2510 25012KT 9999 BKN040 610409 QNH2986INS 
     BECMG 2407/2408 27012G20KT 9999 BKN040 QNH2984INS 
     TEMPO 2409/2411 8000 -RA BKN015 
     BECMG 2414/2415 30015G20KT 9999 BKN040 610409 QNH2984INS 
     TEMPO 2415/2416 31015G20KT 8000 -RA BKN015 
     BECMG 2418/2419 30015G25KT 9999 SCT030 QNH2980INS 
     BECMG 2504/2505 30010G15KT 9999 SCT030 QNH2982INS TX13/2413Z TN01/2504Z
       
EGUN 241058Z AUTO 25014KT 9999 BKN027 OVC033 12/11 A2993 RMK AO2 SLP139 T01240109
TAF EGUN 240413Z 2404/2510 25012KT 9999 BKN040 610409 QNH2986INS 
     BECMG 2407/2408 27012G20KT 9999 BKN040 QNH2984INS 
     TEMPO 2409/2411 8000 -RA BKN015 
     BECMG 2414/2415 30015G20KT 9999 BKN040 610409 QNH2984INS 
     TEMPO 2415/2416 31015G20KT 8000 -RA BKN015 
     BECMG 2418/2419 30015G25KT 9999 SCT030 QNH2980INS 
     BECMG 2504/2505 30010G15KT 9999 SCT030 QNH2982INS TX13/2413Z TN01/2504Z
       
EGUW 241050Z 28015KT 9999 FEW030 BKN060 13/05 Q1014 BLU NOSIG
TAF EGUW 241029Z 2412/2421 25010KT 9999 BKN045 
     PROB30 
     TEMPO 2412/2416 25015G25KT 7000 -SHRA SCT018 
     BECMG 2415/2418 30015KT
       
EGVA 241058Z AUTO 26013KT 9999 FEW022 BKN048 OVC060 12/07 A3000 RMK AO2 SLP164 T01180072 $
EGVN 241050Z 25005KT 9999 SCT022 SCT028 BKN050 12/07 Q1016 BECMG FEW022
TAF EGVN 241024Z 2412/2512 30008KT 9999 BKN045 
     PROB40 
     TEMPO 2412/2420 BKN018 
     PROB30 
     TEMPO 2412/2419 7000 -SHRA SCT014 
     PROB30 
     TEMPO 2502/2506 SCT016
       
EGVO 241050Z 29010KT 9999 FEW035 BKN050 BKN070 13/05 Q1016 BLU NOSIG
TAF EGVO 241028Z 2412/2424 29008KT 9999 BKN045 
     TEMPO 2412/2419 SCT020
       
EGVP 241050Z 28009KT 9999 -RA FEW025 BKN048 BKN060 12/05 Q1016 BLU NOSIG
TAF EGVP 241037Z 2412/2421 28008KT 9999 FEW020 BKN045 
     TEMPO 2412/2414 BKN022 
     PROB30 
     TEMPO 2414/2418 7000 -SHRA BKN020
       
EGWC 241050Z 31007KT 9999 -DZ FEW015 BKN020 10/07 Q1016 WHT
TAF EGWC 241059Z 2412/2421 31015G25KT 9999 SCT018 BKN025 
     BECMG 2412/2414 SCT025 
     PROB30 
     TEMPO 2412/2414 6000 SHRA SCT012
       
EGWU 241050Z 26008KT 9999 FEW035 BKN050 13/06 Q1016 BLU NOSIG
TAF EGWU 241051Z 2412/2506 29010KT 9999 BKN045 
     PROB40 
     TEMPO 2412/2417 SCT020 
     PROB30 
     TEMPO 2414/2419 33015G25KT 7000 SHRA
       
EGXC 241050Z 29018KT 9999 BKN025 BKN050 13/05 Q1013 BLU TEMPO SCT020 WHT
EGXE 241050Z 31004KT 9999 SCT026 SCT250 10/04 Q1013 BLU NOSIG
TAF EGXE 241029Z 2412/2418 30013KT 9999 FEW025 
     TEMPO 2413/2418 31018G32KT 
     PROB30 
     TEMPO 2417/2418 4500 SHRASN SCT020CB
       
EGXP 241050Z 27015KT 9999 BKN030 BKN050 11/06 Q1012 BLU
TAF EGXP 241049Z 2412/2417 29016KT 9999 SCT030 
     TEMPO 2412/2413 29016G26KT 6000 SHRA FEW008 BKN018 
     BECMG 2414/2416 29020G30KT
       
EGXS 241050Z AUTO 36018KT 9999 // SCT012/// SCT023/// 07/05 Q1013
EGXT 241050Z 28013KT 9999 SCT015 BKN050 12/08 Q1014 WHT
TAF EGXT 241029Z 2412/2418 26012KT 9999 BKN045 
     BECMG 2412/2414 30018G28KT 
     TEMPO 2412/2414 6000 SHRA SCT022
       
EGXU 241050Z 36007KT 9999 FEW016 BKN250 09/05 Q1013 BLU NOSIG
TAF EGXU 241043Z 2412/2418 30012G22KT 9999 SCT040 
     TEMPO 2414/2418 31018G32KT 
     PROB30 
     TEMPO 2417/2418 4000 SHRASN SCT020CB
       
EGXV 241050Z AUTO 13001KT 9999 BKN050/// 07/05 Q1013 RERA
EGXW 241050Z 27014KT 9999 SCT028 SCT050 BKN250 11/04 Q1013 BLU TEMPO 29016G26KT 6000 SHRA BKN018 WHT
TAF EGXW 241047Z 2412/2506 29016KT 9999 SCT030 
     TEMPO 2412/2413 29016G26KT 6000 SHRA FEW008 BKN018 
     BECMG 2414/2416 29020G30KT 
     BECMG 2419/2421 29014KT
       
EGXZ 241050Z 33008KT 9999 FEW017 SCT036 09/04 Q1013 BLU
TAF EGXZ 241043Z 2412/2418 30012G22KT 9999 SCT040 
     TEMPO 2414/2418 31018G32KT 
     PROB30 
     TEMPO 2417/2418 4000 SHRASN SCT020CB
       
EGYD 241050Z 27016KT 9999 FEW022 BKN070 BKN250 12/06 Q1013 BLU TEMPO SCT022 WHT
TAF EGYD 241049Z 2412/2418 27015KT 9999 BKN045 
     BECMG 2412/2414 30016G26KT 
     TEMPO 2412/2413 6000 SHRA SCT016
       
EGYE 240850Z 27014KT 9999 FEW025 BKN050 BKN250 ///// Q1014 BLU
EGYH 241050Z 29013KT 9999 SCT020 BKN045 12/06 Q1013 WHT
EGYM 241050Z 25015KT 9999 SCT025 OVC060 13/06 Q1013 BLU TEMPO 7000 -SHRA SCT018 WHT
TAF EGYM 241055Z 2412/2421 27012KT 9999 FEW020 BKN040 
     TEMPO 2412/2416 27015G25KT 5000 SHRA BKN016 
     BECMG 2416/2418 30017G27KT
       
EGYP 241050Z 03007KT 9999 FEW015 00/M02 Q1014 BLU NOSIG
TAF EGYP 241006Z 2412/2506 01015KT 9999 SCT025 
     BECMG 2415/2418 02020G30KT SCT020 
     TEMPO 2418/2506 7000 -RA SCT008 BKN020
       
EGSC 241050Z 25009KT 9999 SCT036 12/07 Q1014
TAF EGSC 240756Z 2409/2418 25009KT 9999 FEW035 
     TEMPO 2409/2416 9000 -SHRA 
     PROB30 
     TEMPO 2409/2412 BKN014 
     BECMG 2412/2415 31010KT 
     PROB30 
     TEMPO 2412/2416 SHRA
       
EGEC 241050Z 34024G34KT 9999 FEW023 SCT027 06/01 Q1017
TAF EGEC 240804Z 2409/2417 32020KT 9999 SCT025 
     TEMPO 2409/2417 31028G38KT 
     PROB40 
     TEMPO 2409/2416 6000 SHRA BKN008 
     PROB30 
     TEMPO 2412/2416 4000 SHRASN
       
EGFF 241050Z AUTO 26011KT 9999 BKN008 12/10 Q1017
TAF AMD EGFF 241027Z 2410/2506 30009KT 9999 BKN007 
     TEMPO 2410/2418 8000 -RA BKN014 
     BECMG 2503/2506 36010KT
       
EGNC 241050Z 28015KT 240V310 9999 SCT025 09/M00 Q1013
TAF EGNC 240844Z 2409/2417 29010KT 9999 SCT030 
     BECMG 2410/2413 29018G28KT
       
EGLC 241050Z AUTO 26011KT 9999 -RA FEW030 SCT047 14/06 Q1016
TAF EGLC 240756Z 2409/2418 26009KT 9999 FEW045 
     PROB30 
     TEMPO 2410/2413 9000 -SHRA BKN014 
     PROB30 
     TEMPO 2413/2417 8000 SHRA
       
EGAC 241050Z 33017G28KT 9999 FEW020 SCT035 08/00 Q1017
TAF EGAC 240800Z 2409/2418 34010KT 9999 FEW015 SCT035 
     BECMG 2409/2412 34018G28KT 
     PROB30 
     TEMPO 2411/2418 7000 SHRA
       
EGXC 241050Z 29018KT 9999 BKN025 BKN050 13/05 Q1013 BLU TEMPO SCT020 WHT
EGWC 241050Z 31007KT 9999 -DZ FEW015 BKN020 10/07 Q1016 WHT
TAF EGWC 241059Z 2412/2421 31015G25KT 9999 SCT018 BKN025 
     BECMG 2412/2414 SCT025 
     PROB30 
     TEMPO 2412/2414 6000 SHRA SCT012
       
EGBE 241050Z 26008KT 230V300 9999 FEW018 SCT026 13/08 Q1015
TAF EGBE 240803Z 2409/2418 28010KT 9999 SCT045 
     TEMPO 2410/2418 31015G25KT 8000 -RA
       
EGTC 241050Z 26011KT 240V300 9999 BKN020 13/08 Q1015
TAF EGTC 240756Z 2409/2418 25008KT 9999 SCT045 
     TEMPO 2409/2416 9000 SHRA 
     BECMG 2412/2415 31012KT
       
EGYD 241050Z 27016KT 9999 FEW022 BKN070 BKN250 12/06 Q1013 BLU TEMPO SCT022 WHT
TAF EGYD 241049Z 2412/2418 27015KT 9999 BKN045 
     BECMG 2412/2414 30016G26KT 
     TEMPO 2412/2413 6000 SHRA SCT016
       
EGDR 241050Z 29007KT 9999 FEW014 SCT120 BKN200 14/06 Q1019 BLU NOSIG
TAF COR EGDR 241052Z 2412/2421 32010KT 9999 FEW020 
     PROB40 
     TEMPO 2412/2417 SCT020 
     BECMG 2415/2417 SCT020 
     TEMPO 2415/2421 5000 -RA SCT010 BKN018
       
EGPN 241050Z 28019KT 260V320 9999 FEW035 SCT045 09/M03 Q1010
TAF AMD EGPN 241035Z 2410/2418 30012KT 9999 SCT040 
     TEMPO 2410/2418 32018G28KT
       
EGPD 241050Z AUTO 26007KT 230V290 9999 -RA FEW047/// //////CB 07/M02 Q1008 TEMPO 4000 RASN BKN008
TAF EGPD 240456Z 2406/2506 29014KT 9999 FEW015 SCT035 
     TEMPO 2406/2415 2000 RASN BKN005 
     BECMG 2409/2412 35015KT 
     PROB30 
     TEMPO 2410/2415 36018G28KT 0500 SN BKN002 
     TEMPO 2415/2419 32005KT 
     TEMPO 2419/2503 3000 SHSN BKN008 
     PROB30 
     TEMPO 2421/2424 0500 +SHSN VV/// 
     TEMPO 2503/2506 1200 SN BKN004
       
EGNX 241050Z 27015KT 9999 SCT021 BKN037 10/06 Q1015
TAF EGNX 240457Z 2406/2506 25009KT 9999 SCT030 
     BECMG 2406/2409 31012KT 
     TEMPO 2406/2414 8000 -RA BKN014 
     TEMPO 2409/2419 32017G27KT 
     PROB30 
     TEMPO 2409/2413 4000 RADZ BKN008 
     PROB30 
     TEMPO 2501/2503 4000 -SHRASN BKN009
       
EGPH 241050Z 27015KT 9999 FEW049 09/M03 Q1012
TAF EGPH 240456Z 2406/2506 27005KT 9999 SCT045 
     BECMG 2409/2412 29015KT 
     PROB30 
     TEMPO 2412/2415 29018G28KT 7000 SHRA BKN010 
     PROB30 
     TEMPO 2418/2421 4000 SHRASN BKN014
       
EGTE 241050Z 31010KT 9999 FEW030 14/07 Q1018
TAF EGTE 240803Z 2409/2418 30010KT 9999 SCT030 
     PROB40 
     TEMPO 2411/2418 32015G25KT
       
EGVA 241058Z AUTO 26013KT 9999 FEW022 BKN048 OVC060 12/07 A3000 RMK AO2 SLP164 T01180072 $
EGLF 241050Z 30007KT 270V330 9999 SCT030 13/06 Q1016
TAF EGLF 240756Z 2409/2418 28008KT 9999 FEW040 
     TEMPO 2410/2418 9000 -SHRA 
     PROB30 
     TEMPO 2412/2418 SHRA BKN014
       
EGKK 241050Z 29009KT 9999 FEW030 13/06 Q1016
TAF EGKK 240453Z 2406/2512 25005KT 4000 BR SCT045 
     BECMG 2406/2409 9999 NSW 
     PROB30 
     TEMPO 2414/2420 6000 SHRA BKN014 
     BECMG 2416/2419 31012KT
       
EGPF 241050Z AUTO 29020G30KT 9999 FEW036 SCT042 07/M00 Q1014
TAF EGPF 240501Z 2406/2506 25008KT 9999 SCT030 
     BECMG 2409/2412 31018G28KT 
     PROB30 
     TEMPO 2411/2414 7000 SHRA 
     TEMPO 2418/2421 4000 SHRASN BKN008 
     TEMPO 2500/2506 29008KT
       
EGBJ 241050Z 29007KT 9999 FEW015 SCT032 12/08 Q1016
TAF EGBJ 240803Z 2409/2418 28010KT 9999 SCT035 
     TEMPO 2410/2418 31015G25KT 8000 -RA
       
EGNR 241050Z 32013KT 9999 -SHRA FEW012 SCT021 BKN035 09/07 Q1016
TAF AMD EGNR 241031Z 2410/2418 31012KT 9999 SCT025 
     TEMPO 2410/2418 32018G30KT 
     PROB30 
     TEMPO 2410/2412 4000 RA BKN012
       
EGLL 241050Z AUTO 28008KT 9999 FEW040 13/07 Q1016
TAF EGLL 240457Z 2406/2512 26006KT 9999 SCT035 
     PROB30 
     TEMPO 2412/2415 8000 -SHRA 
     BECMG 2415/2418 32012KT 
     PROB30 
     TEMPO 2415/2419 6000 SHRA BKN014
       
EGNJ 241050Z 02008KT 9999 FEW012 SCT020 07/06 Q1014
TAF AMD EGNJ 241028Z 2410/2418 27015KT 9999 FEW015 SCT030 
     TEMPO 2410/2413 34018G28KT 6000 SHRA BKN014 
     TEMPO 2413/2415 30018G28KT
       
EGPE 241050Z 34020G30KT 9999 VCSH FEW009 SCT014CB SCT022 03/02 Q1011
TAF AMD EGPE 240945Z 2409/2418 27018G28KT 9999 SCT030 
     BECMG 2409/2412 36018G28KT 
     TEMPO 2409/2418 4000 SHRASN BKN012 
     PROB30 
     TEMPO 2409/2412 1200 SHSN BKN006 
     PROB40 
     TEMPO 2415/2418 1200 SHSN BKN002
       
EGPI 241050Z 33027KT 9999 FEW025 SCT031 08/M02 Q1017
TAF AMD EGPI 240955Z 2409/2418 32024KT 9999 FEW016 SCT035 
     TEMPO 2409/2415 35028G38KT 8000 -SHRA 
     PROB40 
     TEMPO 2410/2415 4000 SHRASN BKN008 
     PROB30 
     TEMPO 2415/2418 4000 SHRASN BKN008
       
EGTK 241050Z 26008KT 9999 FEW049 11/09 Q1015
TAF EGTK 240803Z 2409/2418 25005KT 9999 SCT040 
     TEMPO 2412/2418 30015G25KT
       
EGQK 241050Z AUTO 29011KT 9999 SHRA FEW008/// BKN014/// 03/02 Q1010
EGPA 241050Z 01015KT 0900 R09/1000 SN SCT002 BKN004 BKN006 01/01 Q1012 R09/690299
TAF EGPA 240808Z 2409/2418 34014KT 9999 SCT012 BKN025 
     TEMPO 2409/2418 4000 SHRASN BKN008 
     PROB40 
     TEMPO 2409/2418 01017G27KT 2000 SHSN BKN004
       
EGUL 241059Z AUTO 28011KT 9999 -RA BKN032 BKN049 12/10 A2993 RMK AO2 RAB58
TAF EGUL 240413Z 2404/2510 25012KT 9999 BKN040 610409 QNH2986INS 
     BECMG 2407/2408 27012G20KT 9999 BKN040 QNH2984INS 
     TEMPO 2409/2411 8000 -RA BKN015 
     BECMG 2414/2415 30015G20KT 9999 BKN040 610409 QNH2984INS 
     TEMPO 2415/2416 31015G20KT 8000 -RA BKN015 
     BECMG 2418/2419 30015G25KT 9999 SCT030 QNH2980INS 
     BECMG 2504/2505 30010G15KT 9999 SCT030 QNH2982INS TX13/2413Z TN01/2504Z
       
EGNM 241050Z VRB03KT 9999 FEW012 SCT024 08/06 Q1013
TAF EGNM 240459Z 2406/2506 25012KT 9999 FEW010 
     TEMPO 2406/2411 6000 -RA BKN008 
     PROB30 
     TEMPO 2406/2409 26018G28KT 
     BECMG 2409/2412 31018G28KT 
     BECMG 2418/2421 30008KT
       
EGXE 241050Z 31004KT 9999 SCT026 SCT250 10/04 Q1013 BLU NOSIG
TAF EGXE 241029Z 2412/2418 30013KT 9999 FEW025 
     TEMPO 2413/2418 31018G32KT 
     PROB30 
     TEMPO 2417/2418 4500 SHRASN SCT020CB
       
EGQL 241050Z 28018KT CAVOK 09/M03 Q1010 BLU
TAF EGQL 241025Z 2412/2421 29012KT 9999 SCT035 
     TEMPO 2412/2418 31018G28KT 
     PROB30 
     TEMPO 2412/2420 6000 SHRA SHGS SCT020 
     PROB30 
     TEMPO 2420/2421 3000 SHRASN SCT012CB
       
EGXU 241050Z 36007KT 9999 FEW016 BKN250 09/05 Q1013 BLU NOSIG
TAF EGXU 241043Z 2412/2418 30012G22KT 9999 SCT040 
     TEMPO 2414/2418 31018G32KT 
     PROB30 
     TEMPO 2417/2418 4000 SHRASN SCT020CB
       
EGGP 241050Z 31012KT 280V340 9999 VCSH SCT017 BKN035 10/06 Q1015
TAF EGGP 240457Z 2406/2506 28006KT 9999 FEW010 SCT025 
     BECMG 2406/2409 31016KT 
     TEMPO 2406/2412 6000 RA BKN012 
     TEMPO 2409/2421 31018G32KT 
     PROB30 
     TEMPO 2409/2412 4000 RADZ BKN009 
     PROB30 
     TEMPO 2416/2424 8000 -SHRA 
     BECMG 2418/2421 35006KT 
     PROB30 
     TEMPO 2423/2503 3000 -SHRASN BKN012
       
EGAE 241050Z 35019KT 9999 SCT025 BKN037 08/01 Q1019
TAF EGAE 240857Z 2409/2416 35018KT 9999 FEW015 SCT030 
     TEMPO 2409/2416 35023G33KT 6000 SHRA BKN014
       
EGQS 241050Z 32013KT 9999 4000SW VCSH FEW009 SCT012CB BKN030 03/02 Q1009 RESHRA GRN TEMPO 9999 NSW FEW012CB BLU
TAF EGQS 241032Z 2412/2506 33014KT 9999 SCT030 
     TEMPO 2412/2506 34018G30KT 4000 SHRASN SHGS SCT015CB BKN020 
     PROB30 
     TEMPO 2412/2503 0700 SHSN SCT003 BKN010CB 
     PROB30 
     TEMPO 2500/2506 35025G40KT
       
EGGW 241050Z AUTO 26010KT 230V290 9999 NCD 11/07 Q1015
TAF EGGW 240504Z 2406/2506 28008KT 9999 FEW045 
     TEMPO 2406/2416 9000 -SHRA 
     PROB30 
     TEMPO 2410/2416 SHRA BKN012 
     PROB30 
     TEMPO 2416/2422 30015G25KT
       
EGMD 241050Z 23014KT 9999 FEW014 13/09 Q1016
TAF EGMD 240756Z 2409/2418 25009KT 9999 FEW045 
     PROB30 
     TEMPO 2409/2412 8000 BKN008 
     TEMPO 2412/2418 9000 -SHRA 
     PROB30 
     TEMPO 2415/2418 SHRA BKN014
       
EGCC 241050Z AUTO 29010KT 9999 -RA FEW013/// SCT018/// BKN028/// //////TCU 09/06 Q1015 RESHRA NOSIG
TAF EGCC 240457Z 2406/2512 29005KT 9999 FEW012 SCT020 
     TEMPO 2406/2412 8000 -RA BKN012 
     PROB30 
     TEMPO 2406/2412 4000 RADZ BKN006 
     BECMG 2407/2409 30015KT 
     TEMPO 2409/2419 31018G32KT 
     PROB30 
     TEMPO 2416/2423 8000 -SHRA 
     BECMG 2419/2422 32005KT 
     PROB40 
     TEMPO 2423/2503 3000 -RASN BKN008
       
EGYM 241050Z 25015KT 9999 SCT025 OVC060 13/06 Q1013 BLU TEMPO 7000 -SHRA SCT018 WHT
TAF EGYM 241055Z 2412/2421 27012KT 9999 FEW020 BKN040 
     TEMPO 2412/2416 27015G25KT 5000 SHRA BKN016 
     BECMG 2416/2418 30017G27KT
       
EGUN 241058Z AUTO 25014KT 9999 BKN027 OVC033 12/11 A2993 RMK AO2 SLP139 T01240109
TAF EGUN 240413Z 2404/2510 25012KT 9999 BKN040 610409 QNH2986INS 
     BECMG 2407/2408 27012G20KT 9999 BKN040 QNH2984INS 
     TEMPO 2409/2411 8000 -RA BKN015 
     BECMG 2414/2415 30015G20KT 9999 BKN040 610409 QNH2984INS 
     TEMPO 2415/2416 31015G20KT 8000 -RA BKN015 
     BECMG 2418/2419 30015G25KT 9999 SCT030 QNH2980INS 
     BECMG 2504/2505 30010G15KT 9999 SCT030 QNH2982INS TX13/2413Z TN01/2504Z
       
EGNT 241050Z 32009KT 270V340 9999 VCSH FEW030 08/02 Q1012
TAF EGNT 240501Z 2406/2506 29010KT 9999 FEW030 
     TEMPO 2406/2408 7000 RA BKN014 
     BECMG 2410/2413 29015G25KT 
     TEMPO 2412/2419 6000 SHRA 
     PROB40 
     TEMPO 2416/2418 4000 SHRASN BKN010 
     BECMG 2418/2421 28009KT 
     PROB40 
     TEMPO 2500/2506 3000 SHRASN BKN008CB
       
EGWU 241050Z 26008KT 9999 FEW035 BKN050 13/06 Q1016 BLU NOSIG
TAF EGWU 241051Z 2412/2506 29010KT 9999 BKN045 
     PROB40 
     TEMPO 2412/2417 SCT020 
     PROB30 
     TEMPO 2414/2419 33015G25KT 7000 SHRA
       
EGSH 241050Z 25012KT 230V290 9999 FEW028 SCT032 13/06 Q1013
TAF EGSH 240756Z 2409/2418 24009KT 9999 FEW045 
     TEMPO 2409/2415 9000 -SHRA 
     PROB30 
     TEMPO 2409/2415 6000 SHRA BKN014
       
EGEO 241050Z 33027KT 9999 VCSH SCT029 06/M00 Q1015
TAF EGEO 240808Z 2409/2417 33025G35KT 9999 SCT030
       
EGVO 241050Z 29010KT 9999 FEW035 BKN050 BKN070 13/05 Q1016 BLU NOSIG
TAF EGVO 241028Z 2412/2424 29008KT 9999 BKN045 
     TEMPO 2412/2419 SCT020
       
EGPK 241050Z 32019KT 9999 FEW016 08/M01 Q1015
TAF EGPK 240501Z 2406/2506 32012KT 9999 FEW030 
     BECMG 2410/2412 31020G30KT 
     PROB30 
     TEMPO 2410/2413 8000 -SHRA 
     BECMG 2418/2421 31012KT 
     PROB40 
     TEMPO 2418/2421 4000 SHRASN BKN008
       
EGXP 241050Z 27015KT 9999 BKN030 BKN050 11/06 Q1012 BLU
TAF EGXP 241049Z 2412/2417 29016KT 9999 SCT030 
     TEMPO 2412/2413 29016G26KT 6000 SHRA FEW008 BKN018 
     BECMG 2414/2416 29020G30KT
       
EGPM 241050Z 34015KT 9999 VCSH SCT035 03/M06 Q1010 NOSIG
TAF EGPM 240808Z 2409/2418 36018G28KT 9999 SCT010 BKN040 
     TEMPO 2409/2418 3000 SHSN BKN006
       
EGOS 241050Z 31008KT 9999 -RA FEW018 BKN035 10/06 Q1015 BLU BECMG 33012G22KT SCT020 WHT
TAF EGOS 241059Z 2412/2421 31015G25KT 9999 SCT025 BKN030 
     TEMPO 2412/2413 -RA BKN020 
     PROB30 
     TEMPO 2412/2413 6000 SHRA SCT012
       
EGKA 241050Z 23011KT 9999 FEW024 SCT028 13/08 Q1016
TAF EGKA 240855Z 2409/2418 VRB03KT 9999 SCT030 
     BECMG 2409/2412 25010KT 
     TEMPO 2414/2418 9000 -SHRA 
     BECMG 2415/2418 32010KT 
     PROB30 
     TEMPO 2415/2418 SHRA
       
EGHI 241050Z 28007KT 220V330 9999 FEW030 13/05 Q1017
TAF EGHI 240803Z 2409/2418 35009KT 9999 SCT040 
     TEMPO 2415/2418 8000 -RA
       
EGMC 241020Z 30010KT 9999 FEW032 SCT048 13/05 Q1016
TAF EGMC 240756Z 2409/2418 26006KT 9999 FEW045 
     TEMPO 2411/2418 9000 -SHRA 
     PROB30 
     TEMPO 2412/2418 SHRA
       
EGDX 241050Z 26015KT 9999 BKN007 BKN060 12/10 Q1017 GRN
TAF AMD EGDX 241028Z 2410/2418 27012KT 9999 BKN007 
     BECMG 2410/2412 FEW007 SCT025 
     PROB40 
     TEMPO 2412/2416 7000 SHRA SCT014 BKN020
       
EGSS 241050Z AUTO 27009KT 230V300 9999 BKN017 BKN048 13/08 Q1015
TAF EGSS 240504Z 2406/2512 27008KT 1200 BR FEW045 
     BECMG 2406/2409 9999 NSW 
     TEMPO 2409/2416 9000 -SHRA 
     PROB30 
     TEMPO 2410/2416 SHRA BKN012 
     PROB30 
     TEMPO 2416/2422 30015G25KT 
     BECMG 2507/2510 33010KT 
     PROB30 
     TEMPO 2509/2512 8000 SHRA BKN014 BKN030CB
       
EGPO 241050Z 35024G36KT 9999 -SHGS FEW018 FEW023CB SCT033 04/01 Q1017
TAF AMD EGPO 240826Z 2409/2418 31020G30KT 9999 SCT014 BKN030 
     TEMPO 2409/2418 34030G40KT 3000 SHRASN BKN006 
     PROB40 
     TEMPO 2409/2415 1400 SHSN BKN004 
     PROB40 
     TEMPO 2415/2418 1400 SHGS SHSN BKN004
       
EGPB 241050Z 33013KT 310V010 9999 FEW018 SCT030 04/M05 Q1011 NOSIG
TAF EGPB 240808Z 2409/2418 36015KT 9999 SCT025 
     PROB40 
     TEMPO 2409/2418 01018G28KT 3000 SHSN BKN008
       
EGNV 241050Z 32010KT 280V060 9999 FEW018 SCT030 09/03 Q1013
TAF EGNV 240804Z 2409/2418 28009KT 9999 FEW014 SCT025 
     TEMPO 2409/2411 35010KT 8000 -RA 
     PROB30 
     TEMPO 2409/2411 4000 RA BKN014 
     BECMG 2411/2414 28018G28KT
       
EGPU 241050Z 34027KT 9999 SCT041 07/M01 Q1018
TAF AMD EGPU 240818Z 2409/2418 35015KT 9999 FEW015 SCT030 
     PROB30 
     TEMPO 2409/2415 36025G35KT 4000 SHRASN BKN008 
     TEMPO 2415/2418 5000 SHRA BKN014 
     PROB40 
     TEMPO 2415/2418 34035G55KT 2000 SHGS BKN005
       
EGXZ 241050Z 33008KT 9999 FEW017 SCT036 09/04 Q1013 BLU
TAF EGXZ 241043Z 2412/2418 30012G22KT 9999 SCT040 
     TEMPO 2414/2418 31018G32KT 
     PROB30 
     TEMPO 2417/2418 4000 SHRASN SCT020CB
       
EGOV 241050Z 33014KT 9999 FEW020 BKN065 10/06 Q1017 BLU NOSIG
TAF EGOV 241043Z 2412/2418 34015KT 9999 FEW020 BKN040 
     TEMPO 2414/2418 34020G30KT
       
EGXW 241050Z 27014KT 9999 SCT028 SCT050 BKN250 11/04 Q1013 BLU TEMPO 29016G26KT 6000 SHRA BKN018 WHT
TAF EGXW 241047Z 2412/2506 29016KT 9999 SCT030 
     TEMPO 2412/2413 29016G26KT 6000 SHRA FEW008 BKN018 
     BECMG 2414/2416 29020G30KT 
     BECMG 2419/2421 29014KT
       
EGNO 241050Z 33015KT 9999 FEW021 10/04 Q1015
TAF EGNO 240804Z 2409/2418 32016G26KT 9999 FEW015 SCT030
       
EGUW 241050Z 28015KT 9999 FEW030 BKN060 13/05 Q1014 BLU NOSIG
TAF EGUW 241029Z 2412/2421 25010KT 9999 BKN045 
     PROB30 
     TEMPO 2412/2416 25015G25KT 7000 -SHRA SCT018 
     BECMG 2415/2418 30015KT
       
EGPC 241050Z 02014KT 3500 -SN SCT002 SCT004 BKN011 01/01 Q1010 RESN
TAF AMD EGPC 240933Z 2409/2418 33014KT 9999 SCT012 BKN030 
     TEMPO 2409/2418 4000 SHRASN BKN012 
     PROB40 
     TEMPO 2409/2412 1200 SHSN BKN002 
     PROB40 
     TEMPO 2415/2418 0500 +SHSN BKN002
       
EGXT 241050Z 28013KT 9999 SCT015 BKN050 12/08 Q1014 WHT
TAF EGXT 241029Z 2412/2418 26012KT 9999 BKN045 
     BECMG 2412/2414 30018G28KT 
     TEMPO 2412/2414 6000 SHRA SCT022
       
EGOW 241050Z 31016KT 9999 FEW015 11/04 Q1015 BLU
TAF EGOW 241029Z 2412/2418 32018G28KT 9999 FEW012
       
EGDY 241050Z 26007KT 9999 FEW030 SCT060 14/06 Q1017 BLU TEMPO SCT022 WHT
TAF EGDY 240751Z 2409/2418 31005KT 9999 BKN040 
     TEMPO 2411/2418 SCT020 
     PROB30 
     TEMPO 2411/2418 7000 -SHRA